createdAt,value
2023-04-15T00:01:28.731Z,1.90
2023-04-15T00:06:32.174Z,1.48
2023-04-15T00:11:37.331Z,1.90
2023-04-15T00:16:40.934Z,1.77
2023-04-15T00:21:44.368Z,1.90
2023-04-15T00:26:49.334Z,1.80
2023-04-15T00:31:53.020Z,1.90
2023-04-15T00:36:56.616Z,2.50
2023-04-15T00:42:01.922Z,1.80
2023-04-15T00:47:07.132Z,1.83
2023-04-15T00:52:10.780Z,2.00
2023-04-15T00:57:16.097Z,2.10
2023-04-15T01:02:20.004Z,1.85
2023-04-15T01:07:23.585Z,1.77
2023-04-15T01:12:29.574Z,1.92
2023-04-15T01:17:33.278Z,1.88
2023-04-15T01:22:36.897Z,1.70
2023-04-15T01:27:43.626Z,1.48
2023-04-15T01:32:47.150Z,1.85
2023-04-15T01:38:11.563Z,1.77
2023-04-15T01:43:16.716Z,1.50
2023-04-15T01:48:21.870Z,1.52
2023-04-15T01:53:27.100Z,1.50
2023-04-15T01:58:33.199Z,1.77
2023-04-15T02:03:39.106Z,1.48
2023-04-15T02:08:43.912Z,1.65
2023-04-15T02:18:54.758Z,1.65
2023-04-15T02:23:59.732Z,1.40
2023-04-15T02:34:10.438Z,1.50
2023-04-15T02:44:25.154Z,1.92
2023-04-15T02:49:31.121Z,1.52
2023-04-15T02:54:35.740Z,2.08
2023-04-15T02:59:41.821Z,1.70
2023-04-15T03:04:46.666Z,1.45
2023-04-15T03:09:51.778Z,1.80
2023-04-15T03:14:57.943Z,1.63
2023-04-15T03:20:03.329Z,1.60
2023-04-15T03:25:08.415Z,1.40
2023-04-15T03:30:15.165Z,1.90
2023-04-15T03:35:19.933Z,1.80
2023-04-15T03:40:24.594Z,1.85
2023-04-15T03:45:30.745Z,2.40
2023-04-15T03:50:35.772Z,2.03
2023-04-15T04:00:46.414Z,3.10
2023-04-15T04:05:51.268Z,2.83
2023-04-15T04:10:56.305Z,2.13
2023-04-15T04:21:07.136Z,1.60
2023-04-15T04:26:11.770Z,1.67
2023-04-15T04:31:17.854Z,2.20
2023-04-15T04:36:22.574Z,2.25
2023-04-15T04:41:27.390Z,1.40
2023-04-15T04:46:33.477Z,1.80
2023-04-15T04:51:38.372Z,1.70
2023-04-15T04:56:43.086Z,2.00
2023-04-15T05:01:49.531Z,1.88
2023-04-15T05:06:54.562Z,2.00
2023-04-15T05:11:59.560Z,2.15
2023-04-15T05:17:05.754Z,1.75
2023-04-15T05:22:10.705Z,1.73
2023-04-15T05:32:21.854Z,1.42
2023-04-15T05:37:26.556Z,1.98
2023-04-15T05:42:31.613Z,1.70
2023-04-15T05:47:38.671Z,1.63
2023-04-15T05:52:43.782Z,1.70
2023-04-15T05:57:48.710Z,2.00
2023-04-15T06:07:59.692Z,2.20
2023-04-15T06:13:04.514Z,2.20
2023-04-15T06:18:11.926Z,2.10
2023-04-15T06:23:16.615Z,1.80
2023-04-15T06:33:27.384Z,1.93
2023-04-15T06:38:32.112Z,2.13
2023-04-15T06:48:42.653Z,2.13
2023-04-15T06:53:47.349Z,2.20
2023-04-15T07:03:57.841Z,2.00
2023-04-15T07:09:03.611Z,2.00
2023-04-15T07:14:08.677Z,2.10
2023-04-15T07:19:14.729Z,2.25
2023-04-15T07:24:20.924Z,1.80
2023-04-15T07:29:25.790Z,2.30
2023-04-15T07:34:32.685Z,2.08
2023-04-15T07:39:37.707Z,2.00
2023-04-15T07:44:42.556Z,2.42
2023-04-15T07:49:48.889Z,1.90
2023-04-15T07:54:53.994Z,2.13
2023-04-15T07:59:58.651Z,2.03
2023-04-15T08:05:05.453Z,2.22
2023-04-15T08:10:11.076Z,1.90
2023-04-15T08:15:15.848Z,2.00
2023-04-15T08:20:22.177Z,2.03
2023-04-15T08:25:27.403Z,1.92
2023-04-15T08:30:32.064Z,1.90
2023-04-15T08:40:45.004Z,1.90
2023-04-15T08:45:51.977Z,1.90
2023-04-15T08:50:59.223Z,1.98
2023-04-15T08:56:08.756Z,1.67
2023-04-15T09:01:14.515Z,1.83
2023-04-15T09:06:20.749Z,1.90
2023-04-15T09:11:25.516Z,2.30
2023-04-15T09:16:30.199Z,2.33
2023-04-15T09:21:36.282Z,2.03
2023-04-15T09:26:41.438Z,1.85
2023-04-15T09:31:46.664Z,1.90
2023-04-15T09:36:59.325Z,1.90
2023-04-15T09:42:08.475Z,2.25
2023-04-15T09:47:29.495Z,2.00
2023-04-15T09:52:35.670Z,2.30
2023-04-15T09:57:41.532Z,2.10
2023-04-15T10:02:47.341Z,2.15
2023-04-15T10:07:53.753Z,1.90
2023-04-15T10:12:58.671Z,1.90
2023-04-15T10:23:12.906Z,2.05
2023-04-15T10:28:18.480Z,2.60
2023-04-15T10:33:25.808Z,2.10
2023-04-15T10:38:36.678Z,2.10
2023-04-15T10:43:41.696Z,2.40
2023-04-15T10:53:58.781Z,2.13
2023-04-15T10:59:03.433Z,2.30
2023-04-15T11:04:08.492Z,2.47
2023-04-15T11:09:33.335Z,2.10
2023-04-15T11:14:43.517Z,2.08
2023-04-15T11:19:48.519Z,2.30
2023-04-15T11:29:59.002Z,2.25
2023-04-15T11:35:03.708Z,2.20
2023-04-15T11:40:11.763Z,2.38
2023-04-15T11:45:17.499Z,2.58
2023-04-15T11:50:23.784Z,2.42
2023-04-15T11:55:28.920Z,2.30
2023-04-15T12:00:32.657Z,2.60
2023-04-15T12:05:36.374Z,2.45
2023-04-15T12:10:41.256Z,2.72
2023-04-15T12:20:50.200Z,2.58
2023-04-15T12:25:55.285Z,2.33
2023-04-15T12:30:59.600Z,2.45
2023-04-15T12:36:03.381Z,2.53
2023-04-15T12:41:08.376Z,2.13
2023-04-15T12:46:11.919Z,1.92
2023-04-15T12:51:15.723Z,2.08
2023-04-15T12:56:20.774Z,1.88
2023-04-15T13:01:24.273Z,2.28
2023-04-15T13:06:29.317Z,2.08
2023-04-15T13:11:35.143Z,2.25
2023-04-15T13:16:38.722Z,2.10
2023-04-15T13:21:42.701Z,2.28
2023-04-15T13:26:50.115Z,1.83
2023-04-15T13:31:53.979Z,2.67
2023-04-15T13:36:57.793Z,2.40
2023-04-15T13:42:03.843Z,2.67
2023-04-15T13:47:07.478Z,2.55
2023-04-15T13:52:11.124Z,2.97
2023-04-15T13:57:16.304Z,2.53
2023-04-15T14:02:19.996Z,2.97
2023-04-15T14:07:23.780Z,2.97
2023-04-15T14:12:28.764Z,3.58
2023-04-15T14:17:32.518Z,3.42
2023-04-15T14:22:36.292Z,4.60
2023-04-15T14:27:41.273Z,5.03
2023-04-15T14:37:48.043Z,6.18
2023-04-15T14:42:53.362Z,7.38
2023-04-15T14:47:56.915Z,8.40
2023-04-15T14:53:00.628Z,9.43
2023-04-15T14:58:06.496Z,9.07
2023-04-15T15:03:13.882Z,8.48
2023-04-15T15:08:18.051Z,6.18
2023-04-15T15:13:23.277Z,7.30
2023-04-15T15:23:30.272Z,5.05
2023-04-15T15:28:35.571Z,4.43
2023-04-15T15:33:39.083Z,4.45
2023-04-15T15:38:42.991Z,5.22
2023-04-15T15:43:47.939Z,4.10
2023-04-15T15:48:51.634Z,3.78
2023-04-15T15:53:55.154Z,4.00
2023-04-15T15:59:00.112Z,3.90
2023-04-15T16:09:07.497Z,4.15
2023-04-15T16:14:14.144Z,3.70
2023-04-15T16:19:17.655Z,3.42
2023-04-15T16:24:21.406Z,4.25
2023-04-15T16:29:26.668Z,3.47
2023-04-15T16:34:30.167Z,3.60
2023-04-15T16:39:33.967Z,4.32
2023-04-15T16:44:39.012Z,3.70
2023-04-15T16:49:42.928Z,4.05
2023-04-15T16:54:46.500Z,4.47
2023-04-15T16:59:51.701Z,4.07
2023-04-15T17:09:58.547Z,4.50
2023-04-15T17:15:03.897Z,4.32
2023-04-15T17:20:12.446Z,4.82
2023-04-15T17:25:17.926Z,4.97
2023-04-15T17:30:28.304Z,5.57
2023-04-15T17:35:51.783Z,7.55
2023-04-15T17:41:15.522Z,7.90
2023-04-15T17:46:40.353Z,7.70
2023-04-15T17:52:04.188Z,7.57
2023-04-15T17:57:27.626Z,7.47
2023-04-15T18:02:52.985Z,7.28
2023-04-15T18:08:16.862Z,8.52
2023-04-15T18:13:42.579Z,8.13
2023-04-15T18:19:08.945Z,7.00
2023-04-15T18:24:12.520Z,7.57
2023-04-15T18:29:16.121Z,7.25
2023-04-15T18:34:21.087Z,6.30
2023-04-15T18:44:28.549Z,7.10
2023-04-15T18:49:34.114Z,5.55
2023-04-15T18:54:40.929Z,6.30
2023-04-15T18:59:44.712Z,6.28
2023-04-15T19:04:49.735Z,6.53
2023-04-15T19:14:56.710Z,7.55
2023-04-15T19:20:01.715Z,7.63
2023-04-15T19:25:08.043Z,7.65
2023-04-15T19:30:11.791Z,6.47
2023-04-15T19:35:16.850Z,5.80
2023-04-15T19:40:20.751Z,6.25
2023-04-15T19:45:24.693Z,6.45
2023-04-15T19:50:29.776Z,5.97
2023-04-15T19:55:33.539Z,6.72
2023-04-15T20:00:37.984Z,7.30
2023-04-15T20:05:43.225Z,6.72
2023-04-15T20:15:50.351Z,6.43
2023-04-15T20:20:55.330Z,6.57
2023-04-15T20:25:58.833Z,6.03
2023-04-15T20:31:02.752Z,6.15
2023-04-15T20:36:08.271Z,5.40
2023-04-15T20:41:11.896Z,5.28
2023-04-15T20:46:21.028Z,5.72
2023-04-15T20:51:27.636Z,5.22
2023-04-15T20:56:31.230Z,5.25
2023-04-15T21:01:34.810Z,4.90
2023-04-15T21:06:39.997Z,4.10
2023-04-15T21:12:00.418Z,4.72
2023-04-15T21:17:10.192Z,4.05
2023-04-15T21:22:16.381Z,4.43
2023-04-15T21:27:19.935Z,3.30
2023-04-15T21:32:23.609Z,3.60
2023-04-15T21:37:28.652Z,3.78
2023-04-15T21:42:32.379Z,3.50
2023-04-15T21:48:04.217Z,3.92
2023-04-15T21:53:01.161Z,3.40
2023-04-15T21:58:04.943Z,3.80
2023-04-15T22:03:08.581Z,3.90
2023-04-15T22:08:13.649Z,3.97
2023-04-15T22:18:21.601Z,3.55
2023-04-15T22:23:26.695Z,3.47
2023-04-15T22:28:30.265Z,3.78
2023-04-15T22:33:34.128Z,3.97
2023-04-15T22:38:39.080Z,4.07
2023-04-15T22:48:46.157Z,4.53
2023-04-15T22:53:51.224Z,4.30
2023-04-15T22:58:54.927Z,3.97
2023-04-15T23:04:05.891Z,4.32
2023-04-15T23:09:23.744Z,3.85
2023-04-15T23:14:28.287Z,4.00
2023-04-15T23:19:31.797Z,3.70
2023-04-15T23:24:36.700Z,4.25
2023-04-15T23:29:40.220Z,3.95
2023-04-15T23:34:43.643Z,4.05
2023-04-15T23:39:48.893Z,4.50
2023-04-15T23:44:52.668Z,4.82
2023-04-15T23:49:56.601Z,4.47
2023-04-15T23:55:01.610Z,4.18
